sensor_id;sensor_type;location;lat;lon;timestamp;P1;durP1;ratioP1;P2;durP2;ratioP2
56269;SDS011;42176;43.240;27.880;2022-07-30T00:01:11;28.63;;;17.42;;
56269;SDS011;42176;43.240;27.880;2022-07-30T00:03:36;27.83;;;18.67;;
56269;SDS011;42176;43.240;27.880;2022-07-30T00:06:02;24.63;;;17.63;;
56269;SDS011;42176;43.240;27.880;2022-07-30T00:08:27;29.27;;;18.27;;
56269;SDS011;42176;43.240;27.880;2022-07-30T00:10:53;25.85;;;17.85;;
56269;SDS011;42176;43.240;27.880;2022-07-30T00:13:19;25.95;;;17.70;;
56269;SDS011;42176;43.240;27.880;2022-07-30T00:15:44;25.65;;;17.67;;
56269;SDS011;42176;43.240;27.880;2022-07-30T00:18:10;23.77;;;17.60;;
56269;SDS011;42176;43.240;27.880;2022-07-30T00:20:36;24.52;;;17.38;;
56269;SDS011;42176;43.240;27.880;2022-07-30T00:23:04;22.40;;;16.63;;
56269;SDS011;42176;43.240;27.880;2022-07-30T00:25:30;23.63;;;17.13;;
56269;SDS011;42176;43.240;27.880;2022-07-30T00:27:56;29.05;;;18.17;;
56269;SDS011;42176;43.240;27.880;2022-07-30T00:30:22;28.10;;;16.40;;
56269;SDS011;42176;43.240;27.880;2022-07-30T00:32:47;24.67;;;16.52;;
56269;SDS011;42176;43.240;27.880;2022-07-30T00:35:13;21.92;;;16.15;;
56269;SDS011;42176;43.240;27.880;2022-07-30T00:37:39;20.75;;;15.65;;
56269;SDS011;42176;43.240;27.880;2022-07-30T00:40:05;19.83;;;14.30;;
56269;SDS011;42176;43.240;27.880;2022-07-30T00:42:39;20.23;;;14.77;;
56269;SDS011;42176;43.240;27.880;2022-07-30T00:45:06;17.38;;;13.82;;
56269;SDS011;42176;43.240;27.880;2022-07-30T00:47:33;19.90;;;14.45;;
56269;SDS011;42176;43.240;27.880;2022-07-30T00:49:59;19.90;;;14.15;;
56269;SDS011;42176;43.240;27.880;2022-07-30T00:52:28;20.23;;;14.30;;
56269;SDS011;42176;43.240;27.880;2022-07-30T00:54:55;18.58;;;13.73;;
56269;SDS011;42176;43.240;27.880;2022-07-30T00:57:20;17.90;;;12.57;;
56269;SDS011;42176;43.240;27.880;2022-07-30T00:59:45;17.77;;;13.40;;
56269;SDS011;42176;43.240;27.880;2022-07-30T01:02:11;18.55;;;13.40;;
56269;SDS011;42176;43.240;27.880;2022-07-30T01:04:37;18.08;;;12.85;;
56269;SDS011;42176;43.240;27.880;2022-07-30T01:07:02;17.95;;;13.88;;
56269;SDS011;42176;43.240;27.880;2022-07-30T01:09:27;20.85;;;13.95;;
56269;SDS011;42176;43.240;27.880;2022-07-30T01:11:53;19.55;;;14.82;;
56269;SDS011;42176;43.240;27.880;2022-07-30T01:14:19;16.77;;;13.02;;
56269;SDS011;42176;43.240;27.880;2022-07-30T01:16:44;16.27;;;13.35;;
56269;SDS011;42176;43.240;27.880;2022-07-30T01:19:12;16.20;;;13.13;;
56269;SDS011;42176;43.240;27.880;2022-07-30T01:22:56;16.90;;;12.10;;
56269;SDS011;42176;43.240;27.880;2022-07-30T01:27:32;16.67;;;11.60;;
56269;SDS011;42176;43.240;27.880;2022-07-30T01:30:03;14.75;;;11.38;;
56269;SDS011;42176;43.240;27.880;2022-07-30T01:32:30;17.08;;;13.35;;
56269;SDS011;42176;43.240;27.880;2022-07-30T01:34:59;17.50;;;11.95;;
56269;SDS011;42176;43.240;27.880;2022-07-30T01:37:28;16.83;;;12.90;;
56269;SDS011;42176;43.240;27.880;2022-07-30T01:39:55;13.35;;;11.27;;
56269;SDS011;42176;43.240;27.880;2022-07-30T01:42:22;16.30;;;12.52;;
56269;SDS011;42176;43.240;27.880;2022-07-30T01:44:50;19.33;;;13.98;;
56269;SDS011;42176;43.240;27.880;2022-07-30T01:47:17;16.85;;;12.40;;
56269;SDS011;42176;43.240;27.880;2022-07-30T01:49:45;18.27;;;12.23;;
56269;SDS011;42176;43.240;27.880;2022-07-30T01:52:13;15.38;;;12.18;;
56269;SDS011;42176;43.240;27.880;2022-07-30T01:54:41;17.80;;;13.32;;
56269;SDS011;42176;43.240;27.880;2022-07-30T01:57:09;20.13;;;12.98;;
56269;SDS011;42176;43.240;27.880;2022-07-30T01:59:35;19.30;;;12.60;;
56269;SDS011;42176;43.240;27.880;2022-07-30T02:02:03;18.23;;;12.10;;
56269;SDS011;42176;43.240;27.880;2022-07-30T02:04:29;16.88;;;13.00;;
56269;SDS011;42176;43.240;27.880;2022-07-30T02:07:05;15.80;;;12.70;;
56269;SDS011;42176;43.240;27.880;2022-07-30T02:10:13;18.65;;;12.93;;
56269;SDS011;42176;43.240;27.880;2022-07-30T02:12:57;17.55;;;12.82;;
56269;SDS011;42176;43.240;27.880;2022-07-30T02:18:12;17.77;;;13.93;;
56269;SDS011;42176;43.240;27.880;2022-07-30T02:20:44;17.23;;;12.75;;
56269;SDS011;42176;43.240;27.880;2022-07-30T02:23:15;17.17;;;12.57;;
56269;SDS011;42176;43.240;27.880;2022-07-30T02:25:45;17.88;;;13.20;;
56269;SDS011;42176;43.240;27.880;2022-07-30T02:28:13;18.88;;;12.20;;
56269;SDS011;42176;43.240;27.880;2022-07-30T02:30:46;16.98;;;13.15;;
56269;SDS011;42176;43.240;27.880;2022-07-30T02:33:15;21.60;;;13.48;;
56269;SDS011;42176;43.240;27.880;2022-07-30T02:35:43;16.52;;;13.93;;
56269;SDS011;42176;43.240;27.880;2022-07-30T02:38:09;15.23;;;12.10;;
56269;SDS011;42176;43.240;27.880;2022-07-30T02:40:40;18.52;;;12.70;;
56269;SDS011;42176;43.240;27.880;2022-07-30T02:43:07;21.55;;;13.70;;
56269;SDS011;42176;43.240;27.880;2022-07-30T02:45:33;17.55;;;12.27;;
56269;SDS011;42176;43.240;27.880;2022-07-30T02:48:02;16.23;;;13.40;;
56269;SDS011;42176;43.240;27.880;2022-07-30T02:50:33;23.40;;;14.98;;
56269;SDS011;42176;43.240;27.880;2022-07-30T02:53:00;45.85;;;38.08;;
56269;SDS011;42176;43.240;27.880;2022-07-30T02:55:28;17.63;;;12.05;;
56269;SDS011;42176;43.240;27.880;2022-07-30T02:57:56;18.35;;;13.63;;
56269;SDS011;42176;43.240;27.880;2022-07-30T03:00:24;37.28;;;24.15;;
56269;SDS011;42176;43.240;27.880;2022-07-30T03:02:52;24.40;;;18.27;;
56269;SDS011;42176;43.240;27.880;2022-07-30T03:05:19;51.00;;;38.28;;
56269;SDS011;42176;43.240;27.880;2022-07-30T03:07:45;20.58;;;14.02;;
56269;SDS011;42176;43.240;27.880;2022-07-30T03:10:12;17.08;;;11.57;;
56269;SDS011;42176;43.240;27.880;2022-07-30T03:12:39;20.50;;;14.88;;
56269;SDS011;42176;43.240;27.880;2022-07-30T03:15:08;17.23;;;12.02;;
56269;SDS011;42176;43.240;27.880;2022-07-30T03:17:39;18.77;;;13.13;;
56269;SDS011;42176;43.240;27.880;2022-07-30T03:20:09;18.13;;;10.68;;
56269;SDS011;42176;43.240;27.880;2022-07-30T03:22:40;15.63;;;11.10;;
56269;SDS011;42176;43.240;27.880;2022-07-30T03:25:08;16.63;;;11.35;;
56269;SDS011;42176;43.240;27.880;2022-07-30T03:27:35;17.52;;;11.38;;
56269;SDS011;42176;43.240;27.880;2022-07-30T03:30:02;18.58;;;11.57;;
56269;SDS011;42176;43.240;27.880;2022-07-30T03:32:28;17.08;;;10.93;;
56269;SDS011;42176;43.240;27.880;2022-07-30T03:34:55;17.02;;;11.23;;
56269;SDS011;42176;43.240;27.880;2022-07-30T03:37:21;13.90;;;9.45;;
56269;SDS011;42176;43.240;27.880;2022-07-30T03:39:48;15.55;;;11.18;;
56269;SDS011;42176;43.240;27.880;2022-07-30T03:42:14;16.20;;;9.45;;
56269;SDS011;42176;43.240;27.880;2022-07-30T03:44:40;15.82;;;9.93;;
56269;SDS011;42176;43.240;27.880;2022-07-30T03:47:09;18.05;;;10.77;;
56269;SDS011;42176;43.240;27.880;2022-07-30T03:49:36;16.92;;;9.60;;
56269;SDS011;42176;43.240;27.880;2022-07-30T03:52:02;16.05;;;9.95;;
56269;SDS011;42176;43.240;27.880;2022-07-30T03:54:29;17.05;;;9.63;;
56269;SDS011;42176;43.240;27.880;2022-07-30T03:56:58;18.80;;;14.02;;
56269;SDS011;42176;43.240;27.880;2022-07-30T03:59:27;14.65;;;11.70;;
56269;SDS011;42176;43.240;27.880;2022-07-30T04:01:53;35.25;;;15.68;;
56269;SDS011;42176;43.240;27.880;2022-07-30T04:04:24;68.93;;;26.98;;
56269;SDS011;42176;43.240;27.880;2022-07-30T04:06:50;15.15;;;9.05;;
56269;SDS011;42176;43.240;27.880;2022-07-30T04:09:15;19.88;;;8.43;;
56269;SDS011;42176;43.240;27.880;2022-07-30T04:11:41;12.07;;;7.90;;
56269;SDS011;42176;43.240;27.880;2022-07-30T04:14:06;10.95;;;7.40;;
56269;SDS011;42176;43.240;27.880;2022-07-30T04:16:51;8.30;;;7.40;;
56269;SDS011;42176;43.240;27.880;2022-07-30T04:19:41;9.05;;;7.13;;
56269;SDS011;42176;43.240;27.880;2022-07-30T04:22:11;11.20;;;7.28;;
56269;SDS011;42176;43.240;27.880;2022-07-30T04:24:40;9.82;;;7.10;;
56269;SDS011;42176;43.240;27.880;2022-07-30T04:27:08;8.35;;;6.28;;
56269;SDS011;42176;43.240;27.880;2022-07-30T04:29:34;8.00;;;6.97;;
56269;SDS011;42176;43.240;27.880;2022-07-30T04:31:59;11.50;;;7.32;;
56269;SDS011;42176;43.240;27.880;2022-07-30T04:34:25;10.48;;;7.20;;
56269;SDS011;42176;43.240;27.880;2022-07-30T04:36:50;13.15;;;6.93;;
56269;SDS011;42176;43.240;27.880;2022-07-30T04:39:16;9.65;;;6.55;;
56269;SDS011;42176;43.240;27.880;2022-07-30T04:41:41;14.13;;;6.80;;
56269;SDS011;42176;43.240;27.880;2022-07-30T04:44:07;8.60;;;6.43;;
56269;SDS011;42176;43.240;27.880;2022-07-30T04:46:32;8.38;;;6.18;;
56269;SDS011;42176;43.240;27.880;2022-07-30T04:48:58;7.90;;;6.22;;
56269;SDS011;42176;43.240;27.880;2022-07-30T04:51:32;6.95;;;6.03;;
56269;SDS011;42176;43.240;27.880;2022-07-30T04:53:59;8.93;;;6.43;;
56269;SDS011;42176;43.240;27.880;2022-07-30T04:56:27;8.10;;;6.18;;
56269;SDS011;42176;43.240;27.880;2022-07-30T04:58:54;17.23;;;6.18;;
56269;SDS011;42176;43.240;27.880;2022-07-30T05:01:22;7.43;;;5.90;;
56269;SDS011;42176;43.240;27.880;2022-07-30T05:03:49;5.82;;;5.22;;
56269;SDS011;42176;43.240;27.880;2022-07-30T05:06:16;7.25;;;5.60;;
56269;SDS011;42176;43.240;27.880;2022-07-30T05:08:43;7.95;;;5.97;;
56269;SDS011;42176;43.240;27.880;2022-07-30T05:11:10;11.05;;;7.80;;
56269;SDS011;42176;43.240;27.880;2022-07-30T05:13:36;8.32;;;6.03;;
56269;SDS011;42176;43.240;27.880;2022-07-30T05:16:02;6.75;;;5.47;;
56269;SDS011;42176;43.240;27.880;2022-07-30T05:18:27;5.63;;;4.70;;
56269;SDS011;42176;43.240;27.880;2022-07-30T05:20:53;4.68;;;4.28;;
56269;SDS011;42176;43.240;27.880;2022-07-30T05:23:18;6.78;;;4.43;;
56269;SDS011;42176;43.240;27.880;2022-07-30T05:25:43;5.35;;;4.63;;
56269;SDS011;42176;43.240;27.880;2022-07-30T05:28:09;5.28;;;4.70;;
56269;SDS011;42176;43.240;27.880;2022-07-30T05:30:35;8.23;;;4.55;;
56269;SDS011;42176;43.240;27.880;2022-07-30T05:33:01;5.88;;;4.75;;
56269;SDS011;42176;43.240;27.880;2022-07-30T05:35:26;6.70;;;4.55;;
56269;SDS011;42176;43.240;27.880;2022-07-30T05:37:52;5.18;;;4.35;;
56269;SDS011;42176;43.240;27.880;2022-07-30T05:40:17;5.60;;;4.97;;
56269;SDS011;42176;43.240;27.880;2022-07-30T05:42:43;4.47;;;4.03;;
56269;SDS011;42176;43.240;27.880;2022-07-30T05:45:09;6.07;;;4.93;;
56269;SDS011;42176;43.240;27.880;2022-07-30T05:47:34;5.53;;;4.82;;
56269;SDS011;42176;43.240;27.880;2022-07-30T05:50:00;6.35;;;4.60;;
56269;SDS011;42176;43.240;27.880;2022-07-30T05:52:25;5.88;;;4.90;;
56269;SDS011;42176;43.240;27.880;2022-07-30T05:54:51;7.00;;;5.03;;
56269;SDS011;42176;43.240;27.880;2022-07-30T05:57:16;5.50;;;4.75;;
56269;SDS011;42176;43.240;27.880;2022-07-30T05:59:42;5.93;;;4.30;;
56269;SDS011;42176;43.240;27.880;2022-07-30T06:02:07;4.57;;;4.15;;
56269;SDS011;42176;43.240;27.880;2022-07-30T06:04:32;4.85;;;4.45;;
56269;SDS011;42176;43.240;27.880;2022-07-30T06:06:59;5.18;;;4.68;;
56269;SDS011;42176;43.240;27.880;2022-07-30T06:09:24;5.80;;;4.57;;
56269;SDS011;42176;43.240;27.880;2022-07-30T06:11:50;12.98;;;5.60;;
56269;SDS011;42176;43.240;27.880;2022-07-30T06:14:15;4.90;;;4.50;;
56269;SDS011;42176;43.240;27.880;2022-07-30T06:16:41;6.03;;;4.60;;
56269;SDS011;42176;43.240;27.880;2022-07-30T06:19:06;8.90;;;5.35;;
56269;SDS011;42176;43.240;27.880;2022-07-30T06:21:31;7.72;;;5.15;;
56269;SDS011;42176;43.240;27.880;2022-07-30T06:23:57;5.55;;;5.05;;
56269;SDS011;42176;43.240;27.880;2022-07-30T06:26:22;5.78;;;4.78;;
56269;SDS011;42176;43.240;27.880;2022-07-30T06:28:48;7.10;;;5.43;;
56269;SDS011;42176;43.240;27.880;2022-07-30T06:31:13;6.53;;;5.80;;
56269;SDS011;42176;43.240;27.880;2022-07-30T06:33:39;7.47;;;5.80;;
56269;SDS011;42176;43.240;27.880;2022-07-30T06:36:04;5.05;;;4.38;;
56269;SDS011;42176;43.240;27.880;2022-07-30T06:38:30;4.97;;;4.53;;
56269;SDS011;42176;43.240;27.880;2022-07-30T06:40:56;5.13;;;4.60;;
56269;SDS011;42176;43.240;27.880;2022-07-30T06:43:21;5.20;;;4.53;;
56269;SDS011;42176;43.240;27.880;2022-07-30T06:45:47;7.57;;;4.75;;
56269;SDS011;42176;43.240;27.880;2022-07-30T06:48:12;8.68;;;4.68;;
56269;SDS011;42176;43.240;27.880;2022-07-30T06:50:38;7.15;;;5.03;;
56269;SDS011;42176;43.240;27.880;2022-07-30T06:53:05;4.93;;;4.53;;
56269;SDS011;42176;43.240;27.880;2022-07-30T06:55:30;5.20;;;4.50;;
56269;SDS011;42176;43.240;27.880;2022-07-30T06:57:56;4.88;;;4.40;;
56269;SDS011;42176;43.240;27.880;2022-07-30T07:00:21;4.80;;;4.40;;
56269;SDS011;42176;43.240;27.880;2022-07-30T07:02:47;5.75;;;5.25;;
56269;SDS011;42176;43.240;27.880;2022-07-30T07:05:12;10.63;;;7.90;;
56269;SDS011;42176;43.240;27.880;2022-07-30T07:07:38;9.60;;;8.38;;
56269;SDS011;42176;43.240;27.880;2022-07-30T07:10:04;13.70;;;8.43;;
56269;SDS011;42176;43.240;27.880;2022-07-30T07:12:30;12.88;;;8.93;;
56269;SDS011;42176;43.240;27.880;2022-07-30T07:14:56;13.40;;;9.20;;
56269;SDS011;42176;43.240;27.880;2022-07-30T07:17:21;10.00;;;8.73;;
56269;SDS011;42176;43.240;27.880;2022-07-30T07:19:47;10.38;;;9.35;;
56269;SDS011;42176;43.240;27.880;2022-07-30T07:22:12;10.00;;;8.95;;
56269;SDS011;42176;43.240;27.880;2022-07-30T07:24:37;12.05;;;8.65;;
56269;SDS011;42176;43.240;27.880;2022-07-30T07:27:03;12.38;;;8.73;;
56269;SDS011;42176;43.240;27.880;2022-07-30T07:29:28;8.77;;;7.40;;
56269;SDS011;42176;43.240;27.880;2022-07-30T07:31:54;9.75;;;8.27;;
56269;SDS011;42176;43.240;27.880;2022-07-30T07:34:19;12.10;;;7.97;;
56269;SDS011;42176;43.240;27.880;2022-07-30T07:36:45;9.55;;;7.63;;
56269;SDS011;42176;43.240;27.880;2022-07-30T07:39:10;13.55;;;8.38;;
56269;SDS011;42176;43.240;27.880;2022-07-30T07:41:36;12.95;;;7.72;;
56269;SDS011;42176;43.240;27.880;2022-07-30T07:44:02;9.52;;;7.68;;
56269;SDS011;42176;43.240;27.880;2022-07-30T07:46:28;15.35;;;7.72;;
56269;SDS011;42176;43.240;27.880;2022-07-30T07:48:54;11.85;;;7.22;;
56269;SDS011;42176;43.240;27.880;2022-07-30T07:51:19;9.80;;;8.00;;
56269;SDS011;42176;43.240;27.880;2022-07-30T07:53:45;12.43;;;7.15;;
56269;SDS011;42176;43.240;27.880;2022-07-30T07:56:10;10.23;;;7.40;;
56269;SDS011;42176;43.240;27.880;2022-07-30T07:58:36;10.38;;;7.28;;
56269;SDS011;42176;43.240;27.880;2022-07-30T08:01:01;9.98;;;7.25;;
56269;SDS011;42176;43.240;27.880;2022-07-30T08:03:27;11.90;;;8.43;;
56269;SDS011;42176;43.240;27.880;2022-07-30T08:05:53;8.50;;;7.60;;
56269;SDS011;42176;43.240;27.880;2022-07-30T08:08:18;12.15;;;8.50;;
56269;SDS011;42176;43.240;27.880;2022-07-30T08:10:44;9.95;;;7.45;;
56269;SDS011;42176;43.240;27.880;2022-07-30T08:13:09;9.00;;;7.40;;
56269;SDS011;42176;43.240;27.880;2022-07-30T08:15:35;9.82;;;7.07;;
56269;SDS011;42176;43.240;27.880;2022-07-30T08:18:00;11.00;;;7.30;;
56269;SDS011;42176;43.240;27.880;2022-07-30T08:20:25;10.80;;;7.13;;
56269;SDS011;42176;43.240;27.880;2022-07-30T08:22:51;9.90;;;7.10;;
56269;SDS011;42176;43.240;27.880;2022-07-30T08:25:16;9.43;;;7.35;;
56269;SDS011;42176;43.240;27.880;2022-07-30T08:27:43;9.50;;;7.75;;
56269;SDS011;42176;43.240;27.880;2022-07-30T08:30:09;8.65;;;7.38;;
56269;SDS011;42176;43.240;27.880;2022-07-30T08:32:35;16.50;;;8.88;;
56269;SDS011;42176;43.240;27.880;2022-07-30T08:35:02;11.65;;;7.68;;
56269;SDS011;42176;43.240;27.880;2022-07-30T08:37:29;10.45;;;7.80;;
56269;SDS011;42176;43.240;27.880;2022-07-30T08:39:55;8.70;;;7.25;;
56269;SDS011;42176;43.240;27.880;2022-07-30T08:42:21;8.00;;;6.60;;
56269;SDS011;42176;43.240;27.880;2022-07-30T08:44:47;7.85;;;6.70;;
56269;SDS011;42176;43.240;27.880;2022-07-30T08:47:15;8.18;;;6.30;;
56269;SDS011;42176;43.240;27.880;2022-07-30T08:49:43;6.68;;;5.97;;
56269;SDS011;42176;43.240;27.880;2022-07-30T08:52:10;7.57;;;5.88;;
56269;SDS011;42176;43.240;27.880;2022-07-30T08:54:35;8.30;;;5.60;;
56269;SDS011;42176;43.240;27.880;2022-07-30T08:57:02;8.70;;;6.63;;
56269;SDS011;42176;43.240;27.880;2022-07-30T08:59:29;10.38;;;6.75;;
56269;SDS011;42176;43.240;27.880;2022-07-30T09:01:55;8.32;;;5.97;;
56269;SDS011;42176;43.240;27.880;2022-07-30T09:04:22;9.63;;;6.85;;
56269;SDS011;42176;43.240;27.880;2022-07-30T09:06:48;7.70;;;6.38;;
56269;SDS011;42176;43.240;27.880;2022-07-30T09:09:14;6.55;;;5.57;;
56269;SDS011;42176;43.240;27.880;2022-07-30T09:11:40;7.28;;;6.40;;
56269;SDS011;42176;43.240;27.880;2022-07-30T09:14:09;6.80;;;5.93;;
56269;SDS011;42176;43.240;27.880;2022-07-30T09:16:38;7.15;;;5.32;;
56269;SDS011;42176;43.240;27.880;2022-07-30T09:19:12;7.90;;;5.50;;
56269;SDS011;42176;43.240;27.880;2022-07-30T09:21:41;6.57;;;5.88;;
56269;SDS011;42176;43.240;27.880;2022-07-30T09:24:08;8.60;;;5.63;;
56269;SDS011;42176;43.240;27.880;2022-07-30T09:26:50;6.57;;;5.97;;
56269;SDS011;42176;43.240;27.880;2022-07-30T09:29:21;6.70;;;5.40;;
56269;SDS011;42176;43.240;27.880;2022-07-30T09:37:00;7.55;;;4.72;;
56269;SDS011;42176;43.240;27.880;2022-07-30T09:42:02;9.63;;;4.90;;
56269;SDS011;42176;43.240;27.880;2022-07-30T09:44:40;6.22;;;5.25;;
56269;SDS011;42176;43.240;27.880;2022-07-30T09:47:06;7.72;;;5.53;;
56269;SDS011;42176;43.240;27.880;2022-07-30T09:49:31;6.25;;;4.38;;
56269;SDS011;42176;43.240;27.880;2022-07-30T09:51:56;4.93;;;4.53;;
56269;SDS011;42176;43.240;27.880;2022-07-30T09:54:23;13.13;;;4.90;;
56269;SDS011;42176;43.240;27.880;2022-07-30T09:57:08;7.28;;;4.72;;
56269;SDS011;42176;43.240;27.880;2022-07-30T09:59:33;7.90;;;4.60;;
56269;SDS011;42176;43.240;27.880;2022-07-30T10:01:58;5.35;;;4.82;;
56269;SDS011;42176;43.240;27.880;2022-07-30T10:04:28;6.65;;;5.03;;
56269;SDS011;42176;43.240;27.880;2022-07-30T10:06:57;6.35;;;4.38;;
56269;SDS011;42176;43.240;27.880;2022-07-30T10:09:30;9.02;;;5.32;;
56269;SDS011;42176;43.240;27.880;2022-07-30T10:11:58;7.15;;;4.63;;
56269;SDS011;42176;43.240;27.880;2022-07-30T10:14:29;4.78;;;4.38;;
56269;SDS011;42176;43.240;27.880;2022-07-30T10:16:57;9.43;;;5.05;;
56269;SDS011;42176;43.240;27.880;2022-07-30T10:19:24;8.90;;;4.00;;
56269;SDS011;42176;43.240;27.880;2022-07-30T10:21:50;6.15;;;3.63;;
56269;SDS011;42176;43.240;27.880;2022-07-30T10:24:17;5.50;;;4.47;;
56269;SDS011;42176;43.240;27.880;2022-07-30T10:26:46;7.75;;;4.68;;
56269;SDS011;42176;43.240;27.880;2022-07-30T10:29:14;7.43;;;4.35;;
56269;SDS011;42176;43.240;27.880;2022-07-30T10:31:42;10.52;;;4.72;;
56269;SDS011;42176;43.240;27.880;2022-07-30T10:34:12;5.32;;;4.65;;
56269;SDS011;42176;43.240;27.880;2022-07-30T10:36:42;4.75;;;4.25;;
56269;SDS011;42176;43.240;27.880;2022-07-30T10:39:11;6.55;;;4.75;;
56269;SDS011;42176;43.240;27.880;2022-07-30T10:49:31;9.10;;;4.45;;
56269;SDS011;42176;43.240;27.880;2022-07-30T10:51:57;7.18;;;5.47;;
56269;SDS011;42176;43.240;27.880;2022-07-30T10:57:08;4.47;;;4.07;;
56269;SDS011;42176;43.240;27.880;2022-07-30T11:00:26;12.65;;;5.13;;
56269;SDS011;42176;43.240;27.880;2022-07-30T11:02:33;7.15;;;3.97;;
56269;SDS011;42176;43.240;27.880;2022-07-30T11:07:44;12.63;;;7.10;;
56269;SDS011;42176;43.240;27.880;2022-07-30T11:10:33;7.18;;;5.00;;
56269;SDS011;42176;43.240;27.880;2022-07-30T11:13:05;6.47;;;4.80;;
56269;SDS011;42176;43.240;27.880;2022-07-30T11:16:13;6.22;;;3.78;;
56269;SDS011;42176;43.240;27.880;2022-07-30T11:18:22;11.57;;;4.50;;
56269;SDS011;42176;43.240;27.880;2022-07-30T11:34:48;6.93;;;4.15;;
56269;SDS011;42176;43.240;27.880;2022-07-30T11:37:14;5.35;;;4.47;;
56269;SDS011;42176;43.240;27.880;2022-07-30T11:42:38;7.82;;;4.05;;
56269;SDS011;42176;43.240;27.880;2022-07-30T11:47:46;6.03;;;4.78;;
56269;SDS011;42176;43.240;27.880;2022-07-30T11:50:18;6.30;;;4.95;;
56269;SDS011;42176;43.240;27.880;2022-07-30T11:52:58;8.43;;;4.20;;
56269;SDS011;42176;43.240;27.880;2022-07-30T11:57:55;9.07;;;4.63;;
56269;SDS011;42176;43.240;27.880;2022-07-30T12:00:24;8.98;;;4.85;;
56269;SDS011;42176;43.240;27.880;2022-07-30T12:02:57;9.93;;;4.75;;
56269;SDS011;42176;43.240;27.880;2022-07-30T12:05:24;7.18;;;4.70;;
56269;SDS011;42176;43.240;27.880;2022-07-30T12:07:55;5.70;;;4.45;;
56269;SDS011;42176;43.240;27.880;2022-07-30T12:12:47;9.02;;;4.60;;
56269;SDS011;42176;43.240;27.880;2022-07-30T12:15:31;10.15;;;5.07;;
56269;SDS011;42176;43.240;27.880;2022-07-30T12:17:58;5.40;;;4.50;;
56269;SDS011;42176;43.240;27.880;2022-07-30T12:20:25;10.80;;;4.55;;
56269;SDS011;42176;43.240;27.880;2022-07-30T12:22:52;6.65;;;4.63;;
56269;SDS011;42176;43.240;27.880;2022-07-30T12:25:18;6.53;;;5.10;;
56269;SDS011;42176;43.240;27.880;2022-07-30T12:27:44;8.18;;;4.45;;
56269;SDS011;42176;43.240;27.880;2022-07-30T12:30:14;9.98;;;4.57;;
56269;SDS011;42176;43.240;27.880;2022-07-30T12:32:44;9.38;;;4.38;;
56269;SDS011;42176;43.240;27.880;2022-07-30T12:35:11;5.80;;;4.45;;
56269;SDS011;42176;43.240;27.880;2022-07-30T12:37:37;9.68;;;4.32;;
56269;SDS011;42176;43.240;27.880;2022-07-30T12:40:07;6.97;;;4.60;;
56269;SDS011;42176;43.240;27.880;2022-07-30T12:42:53;9.13;;;5.05;;
56269;SDS011;42176;43.240;27.880;2022-07-30T12:45:28;9.67;;;4.90;;
56269;SDS011;42176;43.240;27.880;2022-07-30T12:47:55;8.07;;;4.78;;
56269;SDS011;42176;43.240;27.880;2022-07-30T12:50:21;6.55;;;5.00;;
56269;SDS011;42176;43.240;27.880;2022-07-30T12:52:51;10.73;;;5.63;;
56269;SDS011;42176;43.240;27.880;2022-07-30T12:55:19;6.45;;;5.25;;
56269;SDS011;42176;43.240;27.880;2022-07-30T13:00:19;11.27;;;5.50;;
56269;SDS011;42176;43.240;27.880;2022-07-30T13:02:45;7.97;;;5.53;;
56269;SDS011;42176;43.240;27.880;2022-07-30T13:05:11;8.95;;;5.78;;
56269;SDS011;42176;43.240;27.880;2022-07-30T13:07:53;10.25;;;6.43;;
56269;SDS011;42176;43.240;27.880;2022-07-30T13:10:19;9.85;;;6.57;;
56269;SDS011;42176;43.240;27.880;2022-07-30T13:12:45;8.65;;;5.85;;
56269;SDS011;42176;43.240;27.880;2022-07-30T13:15:17;12.75;;;5.93;;
56269;SDS011;42176;43.240;27.880;2022-07-30T13:17:44;8.82;;;5.07;;
56269;SDS011;42176;43.240;27.880;2022-07-30T13:20:09;8.73;;;6.22;;
56269;SDS011;42176;43.240;27.880;2022-07-30T13:22:36;9.43;;;4.82;;
56269;SDS011;42176;43.240;27.880;2022-07-30T13:25:02;11.27;;;6.10;;
56269;SDS011;42176;43.240;27.880;2022-07-30T13:27:27;10.00;;;5.95;;
56269;SDS011;42176;43.240;27.880;2022-07-30T13:29:53;7.03;;;6.30;;
56269;SDS011;42176;43.240;27.880;2022-07-30T13:32:18;8.98;;;6.63;;
56269;SDS011;42176;43.240;27.880;2022-07-30T13:34:44;11.57;;;5.57;;
56269;SDS011;42176;43.240;27.880;2022-07-30T13:37:09;9.43;;;6.70;;
56269;SDS011;42176;43.240;27.880;2022-07-30T13:39:35;8.18;;;5.97;;
56269;SDS011;42176;43.240;27.880;2022-07-30T13:42:00;7.75;;;5.88;;
56269;SDS011;42176;43.240;27.880;2022-07-30T13:44:25;10.27;;;6.53;;
56269;SDS011;42176;43.240;27.880;2022-07-30T13:46:51;13.27;;;5.72;;
56269;SDS011;42176;43.240;27.880;2022-07-30T13:49:16;9.25;;;7.22;;
56269;SDS011;42176;43.240;27.880;2022-07-30T13:51:42;10.10;;;5.88;;
56269;SDS011;42176;43.240;27.880;2022-07-30T13:54:08;15.75;;;7.15;;
56269;SDS011;42176;43.240;27.880;2022-07-30T13:56:33;11.02;;;6.32;;
56269;SDS011;42176;43.240;27.880;2022-07-30T13:58:59;8.45;;;6.18;;
56269;SDS011;42176;43.240;27.880;2022-07-30T14:01:24;14.40;;;6.45;;
56269;SDS011;42176;43.240;27.880;2022-07-30T14:03:52;12.18;;;5.80;;
56269;SDS011;42176;43.240;27.880;2022-07-30T14:06:18;9.02;;;6.68;;
56269;SDS011;42176;43.240;27.880;2022-07-30T14:08:44;8.73;;;6.07;;
56269;SDS011;42176;43.240;27.880;2022-07-30T14:11:09;8.85;;;6.15;;
56269;SDS011;42176;43.240;27.880;2022-07-30T14:13:35;11.98;;;6.65;;
56269;SDS011;42176;43.240;27.880;2022-07-30T14:16:01;6.93;;;6.22;;
56269;SDS011;42176;43.240;27.880;2022-07-30T14:18:27;14.23;;;6.75;;
56269;SDS011;42176;43.240;27.880;2022-07-30T14:20:53;11.07;;;7.35;;
56269;SDS011;42176;43.240;27.880;2022-07-30T14:23:18;8.48;;;6.43;;
56269;SDS011;42176;43.240;27.880;2022-07-30T14:25:44;10.63;;;6.85;;
56269;SDS011;42176;43.240;27.880;2022-07-30T14:28:10;8.80;;;6.43;;
56269;SDS011;42176;43.240;27.880;2022-07-30T14:30:35;8.38;;;6.75;;
56269;SDS011;42176;43.240;27.880;2022-07-30T14:33:01;10.25;;;5.85;;
56269;SDS011;42176;43.240;27.880;2022-07-30T14:35:27;8.23;;;5.65;;
56269;SDS011;42176;43.240;27.880;2022-07-30T14:37:52;11.43;;;6.53;;
56269;SDS011;42176;43.240;27.880;2022-07-30T14:40:18;8.75;;;6.32;;
56269;SDS011;42176;43.240;27.880;2022-07-30T14:42:44;14.40;;;8.32;;
56269;SDS011;42176;43.240;27.880;2022-07-30T14:45:11;12.23;;;6.32;;
56269;SDS011;42176;43.240;27.880;2022-07-30T14:47:37;7.30;;;6.30;;
56269;SDS011;42176;43.240;27.880;2022-07-30T14:50:03;11.18;;;7.07;;
56269;SDS011;42176;43.240;27.880;2022-07-30T14:52:29;5.60;;;5.03;;
56269;SDS011;42176;43.240;27.880;2022-07-30T14:54:55;13.65;;;6.88;;
56269;SDS011;42176;43.240;27.880;2022-07-30T14:57:20;10.95;;;6.45;;
56269;SDS011;42176;43.240;27.880;2022-07-30T14:59:46;9.55;;;6.55;;
56269;SDS011;42176;43.240;27.880;2022-07-30T15:02:11;13.52;;;7.28;;
56269;SDS011;42176;43.240;27.880;2022-07-30T15:04:37;11.68;;;6.95;;
56269;SDS011;42176;43.240;27.880;2022-07-30T15:07:02;9.95;;;6.13;;
56269;SDS011;42176;43.240;27.880;2022-07-30T15:09:28;9.32;;;6.20;;
56269;SDS011;42176;43.240;27.880;2022-07-30T15:11:53;10.98;;;7.07;;
56269;SDS011;42176;43.240;27.880;2022-07-30T15:14:19;10.90;;;6.43;;
56269;SDS011;42176;43.240;27.880;2022-07-30T15:16:45;9.85;;;5.60;;
56269;SDS011;42176;43.240;27.880;2022-07-30T15:19:10;11.98;;;6.25;;
56269;SDS011;42176;43.240;27.880;2022-07-30T15:21:37;7.38;;;5.75;;